createdAt,value
2023-04-24T00:02:11.823Z,0.52
2023-04-24T00:04:58.243Z,1.20
2023-04-24T00:07:45.031Z,0.40
2023-04-24T00:10:31.549Z,0.35
2023-04-24T00:13:18.864Z,0.40
2023-04-24T00:16:06.175Z,0.65
2023-04-24T00:18:53.533Z,1.17
2023-04-24T00:21:39.287Z,1.20
2023-04-24T00:24:25.341Z,0.60
2023-04-24T00:27:17.774Z,1.98
2023-04-24T00:30:12.890Z,1.23
2023-04-24T00:33:05.725Z,1.25
2023-04-24T00:35:58.725Z,1.10
2023-04-24T00:38:52.051Z,1.08
2023-04-24T00:45:01.667Z,6.65
2023-04-24T00:47:55.811Z,1.38
2023-04-24T00:50:49.027Z,0.95
2023-04-24T00:53:41.902Z,0.73
2023-04-24T00:56:34.803Z,0.98
2023-04-24T00:59:27.808Z,3.50
2023-04-24T01:02:22.134Z,0.80
2023-04-24T01:05:18.084Z,1.05
2023-04-24T01:08:10.937Z,1.13
2023-04-24T01:11:05.421Z,2.85
2023-04-24T01:13:59.806Z,1.35
2023-04-24T01:16:52.899Z,1.67
2023-04-24T01:19:47.018Z,2.22
2023-04-24T01:22:41.786Z,2.80
2023-04-24T01:25:34.679Z,2.20
2023-04-24T01:28:26.749Z,1.17
2023-04-24T01:31:20.217Z,2.25
2023-04-24T01:34:12.640Z,1.48
2023-04-24T01:37:05.911Z,0.80
2023-04-24T01:40:00.163Z,1.40
2023-04-24T01:42:53.145Z,0.75
2023-04-24T01:45:46.102Z,1.23
2023-04-24T01:48:38.694Z,1.13
2023-04-24T01:51:32.495Z,0.55
2023-04-24T01:54:25.184Z,0.63
2023-04-24T01:57:19.250Z,1.65
2023-04-24T02:00:13.204Z,0.50
2023-04-24T02:03:05.836Z,0.90
2023-04-24T02:05:58.896Z,0.65
2023-04-24T02:12:09.323Z,0.68
2023-04-24T02:18:16.447Z,0.90
2023-04-24T02:21:08.760Z,1.25
2023-04-24T02:24:08.864Z,1.00
2023-04-24T02:27:03.759Z,0.98
2023-04-24T02:29:57.020Z,0.68
2023-04-24T02:36:01.949Z,1.48
2023-04-24T02:42:02.593Z,1.58
2023-04-24T02:44:56.559Z,0.90
2023-04-24T02:47:49.047Z,0.95
2023-04-24T02:50:41.924Z,0.50
2023-04-24T02:53:36.368Z,0.57
2023-04-24T02:56:28.785Z,1.48
2023-04-24T03:02:35.255Z,1.20
2023-04-24T03:08:45.543Z,0.88
2023-04-24T03:14:49.155Z,0.70
2023-04-24T03:17:41.988Z,1.98
2023-04-24T03:20:34.805Z,0.63
2023-04-24T03:23:27.928Z,1.65
2023-04-24T03:26:22.296Z,0.55
2023-04-24T03:29:30.294Z,0.50
2023-04-24T03:32:23.920Z,1.67
2023-04-24T03:35:17.144Z,1.02
2023-04-24T03:38:09.840Z,2.13
2023-04-24T03:41:24.543Z,0.47
2023-04-24T03:44:22.326Z,0.70
2023-04-24T03:56:42.558Z,1.38
2023-04-24T04:09:02.437Z,0.75
2023-04-24T04:11:57.372Z,1.00
2023-04-24T04:14:47.562Z,0.73
2023-04-24T04:17:41.205Z,2.10
2023-04-24T04:20:34.175Z,7.53
2023-04-24T04:27:06.412Z,1.05
2023-04-24T04:30:06.383Z,1.33
2023-04-24T04:33:06.803Z,1.98
2023-04-24T04:39:15.227Z,2.13
2023-04-24T04:42:22.128Z,4.20
2023-04-24T04:45:18.008Z,1.73
2023-04-24T04:48:32.319Z,4.05
2023-04-24T04:51:26.698Z,2.75
2023-04-24T04:54:19.857Z,2.95
2023-04-24T04:57:12.995Z,2.47
2023-04-24T05:00:11.342Z,3.25
2023-04-24T05:03:20.754Z,3.47
2023-04-24T05:06:17.001Z,2.97
2023-04-24T05:09:11.010Z,3.95
2023-04-24T05:12:20.989Z,4.82
2023-04-24T05:15:19.235Z,5.70
2023-04-24T05:18:11.703Z,12.07
2023-04-24T05:21:04.966Z,8.15
2023-04-24T05:23:57.748Z,6.30
2023-04-24T05:27:30.862Z,8.55
2023-04-24T05:30:25.511Z,8.32
2023-04-24T05:33:29.179Z,8.60
2023-04-24T05:36:22.294Z,8.45
2023-04-24T05:39:14.757Z,9.43
2023-04-24T05:42:08.215Z,11.77
2023-04-24T05:48:14.532Z,8.82
2023-04-24T05:54:23.912Z,11.68
2023-04-24T05:57:16.686Z,11.45
2023-04-24T06:00:21.034Z,11.45
2023-04-24T06:03:24.116Z,11.95
2023-04-24T06:06:16.999Z,15.38
2023-04-24T06:09:11.149Z,12.20
2023-04-24T06:12:04.441Z,10.43
2023-04-24T06:15:12.565Z,11.75
2023-04-24T06:18:17.696Z,16.50
2023-04-24T06:21:12.409Z,11.40
2023-04-24T06:24:05.507Z,11.93
2023-04-24T06:27:00.985Z,12.10
2023-04-24T06:29:55.506Z,12.10
2023-04-24T06:32:47.897Z,12.88
2023-04-24T06:38:50.082Z,12.65
2023-04-24T06:41:43.317Z,13.02
2023-04-24T06:44:45.248Z,12.23
2023-04-24T06:50:50.647Z,11.75
2023-04-24T06:56:58.088Z,12.75
2023-04-24T06:59:50.563Z,12.88
2023-04-24T07:02:43.198Z,13.93
2023-04-24T07:05:36.205Z,12.13
2023-04-24T07:08:29.081Z,11.18
2023-04-24T07:11:23.009Z,10.27
2023-04-24T07:14:18.030Z,10.75
2023-04-24T07:17:11.035Z,12.48
2023-04-24T07:20:04.012Z,11.45
2023-04-24T07:22:57.152Z,11.20
2023-04-24T07:25:49.795Z,12.65
2023-04-24T07:28:42.821Z,9.75
2023-04-24T07:31:33.333Z,10.23
2023-04-24T07:34:26.224Z,9.95
2023-04-24T07:37:56.278Z,7.95
2023-04-24T07:40:49.267Z,7.80
2023-04-24T07:46:55.689Z,10.25
2023-04-24T07:49:47.814Z,8.93
2023-04-24T07:52:40.975Z,7.60
2023-04-24T07:55:33.837Z,8.60
2023-04-24T07:58:26.725Z,9.02
2023-04-24T08:01:19.775Z,6.97
2023-04-24T08:04:14.312Z,6.63
2023-04-24T08:07:06.670Z,7.88
2023-04-24T08:10:00.249Z,5.00
2023-04-24T08:12:54.197Z,5.72
2023-04-24T08:15:47.102Z,5.22
2023-04-24T08:18:40.094Z,4.70
2023-04-24T08:21:34.652Z,4.35
2023-04-24T08:24:27.044Z,4.55
2023-04-24T08:30:40.748Z,8.63
2023-04-24T08:33:35.398Z,4.78
2023-04-24T08:36:35.936Z,5.07
2023-04-24T08:39:38.357Z,4.57
2023-04-24T08:42:32.646Z,4.15
2023-04-24T08:45:26.957Z,3.78
2023-04-24T08:48:44.826Z,2.87
2023-04-24T08:51:38.921Z,3.20
2023-04-24T08:54:32.857Z,3.65
2023-04-24T09:00:40.438Z,2.92
2023-04-24T09:06:57.635Z,3.42
2023-04-24T09:12:56.065Z,2.72
2023-04-24T09:15:50.806Z,4.18
2023-04-24T09:18:43.950Z,3.63
2023-04-24T09:21:37.900Z,4.47
2023-04-24T09:24:30.732Z,3.00
2023-04-24T09:27:25.584Z,2.50
2023-04-24T09:30:22.873Z,4.67
2023-04-24T09:33:17.654Z,7.10
2023-04-24T09:36:10.371Z,2.00
2023-04-24T09:39:03.574Z,1.80
2023-04-24T09:41:58.663Z,6.47
2023-04-24T09:44:55.182Z,1.70
2023-04-24T09:47:54.817Z,3.90
2023-04-24T09:50:54.046Z,2.75
2023-04-24T09:53:48.241Z,2.30
2023-04-24T10:00:27.914Z,3.38
2023-04-24T10:03:21.190Z,1.40
2023-04-24T10:06:15.973Z,1.45
2023-04-24T10:12:30.842Z,2.03
2023-04-24T10:15:24.109Z,1.77
2023-04-24T10:18:17.643Z,0.90
2023-04-24T10:21:10.330Z,2.35
2023-04-24T10:24:29.444Z,7.33
2023-04-24T10:27:22.457Z,0.80
2023-04-24T10:30:15.980Z,1.20
2023-04-24T10:33:02.540Z,0.63
2023-04-24T10:39:01.150Z,0.80
2023-04-24T10:41:50.595Z,0.93
2023-04-24T10:44:38.333Z,0.77
2023-04-24T10:47:24.204Z,1.45
2023-04-24T10:50:11.926Z,3.95
2023-04-24T10:53:07.687Z,2.20
2023-04-24T10:55:59.936Z,3.50
2023-04-24T11:02:13.317Z,2.03
2023-04-24T11:04:59.461Z,1.70
2023-04-24T11:08:14.300Z,1.50
2023-04-24T11:11:11.818Z,1.20
2023-04-24T11:17:31.232Z,2.97
2023-04-24T11:23:41.716Z,2.53
2023-04-24T11:29:51.561Z,2.00
2023-04-24T11:32:45.438Z,3.35
2023-04-24T11:35:41.258Z,3.08
2023-04-24T11:38:31.046Z,1.67
2023-04-24T11:41:23.869Z,4.95
2023-04-24T11:44:54.091Z,1.90
2023-04-24T11:47:47.867Z,2.20
2023-04-24T11:50:41.047Z,1.70
2023-04-24T11:53:33.699Z,1.60
2023-04-24T11:56:26.128Z,1.58
2023-04-24T11:59:19.312Z,1.00
2023-04-24T12:02:23.012Z,3.08
2023-04-24T12:05:23.099Z,1.60
2023-04-24T12:11:27.054Z,1.80
2023-04-24T12:14:19.747Z,2.00
2023-04-24T12:17:11.975Z,2.33
2023-04-24T12:20:06.373Z,2.05
2023-04-24T12:23:01.719Z,4.95
2023-04-24T12:25:54.143Z,1.80
2023-04-24T12:32:17.779Z,4.75
2023-04-24T12:38:48.041Z,2.42
2023-04-24T12:42:02.113Z,3.25
2023-04-24T12:44:58.684Z,3.10
2023-04-24T12:51:26.994Z,2.45
2023-04-24T12:54:57.111Z,5.32
2023-04-24T12:57:51.412Z,4.68
2023-04-24T13:00:46.594Z,5.35
2023-04-24T13:03:38.774Z,4.47
2023-04-24T13:06:32.394Z,3.60
2023-04-24T13:09:25.388Z,3.85
2023-04-24T13:12:18.007Z,2.85
2023-04-24T13:15:12.611Z,4.57
2023-04-24T13:21:09.709Z,2.60
2023-04-24T13:24:02.107Z,3.97
2023-04-24T13:26:55.073Z,6.78
2023-04-24T13:29:47.964Z,3.08
2023-04-24T13:32:42.523Z,3.95
2023-04-24T13:35:34.875Z,4.20
2023-04-24T13:38:27.475Z,4.57
2023-04-24T13:41:36.061Z,11.60
2023-04-24T13:44:27.361Z,6.03
2023-04-24T13:47:20.024Z,6.55
2023-04-24T13:50:14.416Z,5.93
2023-04-24T13:53:06.525Z,8.60
2023-04-24T13:55:58.757Z,6.07
2023-04-24T13:58:53.789Z,9.65
2023-04-24T14:01:48.624Z,6.65
2023-04-24T14:04:42.356Z,8.75
2023-04-24T14:07:36.187Z,6.32
2023-04-24T14:10:29.025Z,12.15
2023-04-24T14:16:34.289Z,11.85
2023-04-24T14:19:27.126Z,9.65
2023-04-24T14:22:19.859Z,9.52
2023-04-24T14:25:14.280Z,11.63
2023-04-24T14:28:08.079Z,13.43
2023-04-24T14:31:00.668Z,16.83
2023-04-24T14:37:05.473Z,8.82
2023-04-24T14:40:11.892Z,8.55
2023-04-24T14:43:12.194Z,8.93
2023-04-24T14:46:05.563Z,7.63
2023-04-24T14:48:58.064Z,12.85
2023-04-24T14:55:03.242Z,9.73
2023-04-24T15:01:13.885Z,13.77
2023-04-24T15:04:07.229Z,9.05
2023-04-24T15:07:00.086Z,12.05
2023-04-24T15:09:53.026Z,14.13
2023-04-24T15:12:45.866Z,9.15
2023-04-24T15:15:38.980Z,5.33
2023-04-24T15:18:33.246Z,5.97
2023-04-24T15:24:44.986Z,7.35
2023-04-24T15:27:42.391Z,4.45
2023-04-24T15:30:34.611Z,4.60
2023-04-24T15:33:27.403Z,4.97
2023-04-24T15:36:22.181Z,3.63
2023-04-24T15:42:51.062Z,7.75
2023-04-24T15:45:44.763Z,3.22
2023-04-24T15:48:39.755Z,4.55
2023-04-24T15:51:33.132Z,7.00
2023-04-24T15:54:26.376Z,2.80
2023-04-24T15:57:19.172Z,3.15
2023-04-24T16:00:13.630Z,3.83
2023-04-24T16:03:09.273Z,5.55
2023-04-24T16:06:02.962Z,2.28
2023-04-24T16:08:59.245Z,3.40
2023-04-24T16:11:52.990Z,5.57
2023-04-24T16:14:46.132Z,4.15
2023-04-24T16:17:39.088Z,3.75
2023-04-24T16:20:31.846Z,2.20
2023-04-24T16:23:25.222Z,4.00
2023-04-24T16:30:06.590Z,3.72
2023-04-24T16:32:58.757Z,6.65
2023-04-24T16:35:52.061Z,5.60
2023-04-24T16:38:45.177Z,3.53
2023-04-24T16:41:37.603Z,6.78
2023-04-24T16:44:29.668Z,5.32
2023-04-24T16:47:59.216Z,6.53
2023-04-24T16:50:53.278Z,11.52
2023-04-24T16:56:58.265Z,5.82
2023-04-24T16:59:50.872Z,7.93
2023-04-24T17:02:44.613Z,8.30
2023-04-24T17:05:38.246Z,6.38
2023-04-24T17:08:32.694Z,6.78
2023-04-24T17:11:24.966Z,3.13
2023-04-24T17:14:17.923Z,3.33
2023-04-24T17:17:11.048Z,4.72
2023-04-24T17:20:14.920Z,3.83
2023-04-24T17:23:13.593Z,4.78
2023-04-24T17:26:07.181Z,3.42
2023-04-24T17:29:00.116Z,7.07
2023-04-24T17:31:53.148Z,3.78
2023-04-24T17:34:46.356Z,5.07
2023-04-24T17:37:39.737Z,4.35
2023-04-24T17:40:31.812Z,7.95
2023-04-24T17:43:27.037Z,6.13
2023-04-24T17:46:20.134Z,7.05
2023-04-24T17:49:12.870Z,5.80
2023-04-24T17:52:05.794Z,7.82
2023-04-24T17:54:58.955Z,9.68
2023-04-24T17:57:51.782Z,5.53
2023-04-24T18:00:45.616Z,7.55
2023-04-24T18:03:38.358Z,7.43
2023-04-24T18:06:30.753Z,9.30
2023-04-24T18:09:23.023Z,5.13
2023-04-24T18:12:16.238Z,15.18
2023-04-24T18:15:14.418Z,6.15
2023-04-24T18:18:09.202Z,6.90
2023-04-24T18:21:01.558Z,8.75
2023-04-24T18:23:55.042Z,12.18
2023-04-24T18:26:48.005Z,9.90
2023-04-24T18:29:40.901Z,8.38
2023-04-24T18:35:51.992Z,7.45
2023-04-24T18:38:45.186Z,9.80
2023-04-24T18:41:38.268Z,10.88
2023-04-24T18:44:30.736Z,6.30
2023-04-24T18:47:23.124Z,10.07
2023-04-24T18:50:19.781Z,7.97
2023-04-24T18:53:16.937Z,11.00
2023-04-24T18:56:09.789Z,6.57
2023-04-24T18:59:04.778Z,7.78
2023-04-24T19:01:57.062Z,7.00
2023-04-24T19:04:50.239Z,10.68
2023-04-24T19:07:42.984Z,8.88
2023-04-24T19:10:36.927Z,10.88
2023-04-24T19:13:29.838Z,6.68
2023-04-24T19:16:29.784Z,11.10
2023-04-24T19:19:23.697Z,9.43
2023-04-24T19:22:16.141Z,7.95
2023-04-24T19:25:09.569Z,10.32
2023-04-24T19:28:03.342Z,8.35
2023-04-24T19:30:58.344Z,7.50
2023-04-24T19:33:51.133Z,9.65
2023-04-24T19:36:44.142Z,10.73
2023-04-24T19:39:37.266Z,7.63
2023-04-24T19:45:36.304Z,12.30
2023-04-24T19:51:45.232Z,10.60
2023-04-24T19:57:54.271Z,9.25
2023-04-24T20:00:48.365Z,10.70
2023-04-24T20:03:41.231Z,7.75
2023-04-24T20:06:29.934Z,15.98
2023-04-24T20:09:23.125Z,12.35
2023-04-24T20:12:16.043Z,9.77
2023-04-24T20:15:09.806Z,9.85
2023-04-24T20:18:04.334Z,10.70
2023-04-24T20:20:59.451Z,8.93
2023-04-24T20:23:52.568Z,18.00
2023-04-24T20:26:44.813Z,10.48
2023-04-24T20:29:38.121Z,11.40
2023-04-24T20:32:31.443Z,13.10
2023-04-24T20:35:25.340Z,14.75
2023-04-24T20:38:18.340Z,12.13
2023-04-24T20:41:10.938Z,9.18
2023-04-24T20:44:04.308Z,10.13
2023-04-24T20:46:57.168Z,12.20
2023-04-24T20:53:04.041Z,7.65
2023-04-24T20:55:57.149Z,9.85
2023-04-24T20:58:52.456Z,8.98
2023-04-24T21:04:40.988Z,10.25
2023-04-24T21:07:36.638Z,12.18
2023-04-24T21:10:30.189Z,14.53
2023-04-24T21:13:23.069Z,9.70
2023-04-24T21:19:44.828Z,9.23
2023-04-24T21:22:38.233Z,13.02
2023-04-24T21:25:32.340Z,11.63
2023-04-24T21:31:31.336Z,10.80
2023-04-24T21:37:40.370Z,8.73
2023-04-24T21:40:34.213Z,17.88
2023-04-24T21:43:37.065Z,12.95
2023-04-24T21:49:52.306Z,15.60
2023-04-24T21:56:02.595Z,10.27
2023-04-24T21:58:55.198Z,8.82
2023-04-24T22:01:47.969Z,13.50
2023-04-24T22:04:50.430Z,14.63
2023-04-24T22:07:46.032Z,12.57
2023-04-24T22:10:38.867Z,23.73
2023-04-24T22:13:32.983Z,12.82
2023-04-24T22:16:27.753Z,18.55
2023-04-24T22:22:15.153Z,13.55
2023-04-24T22:28:20.254Z,13.02
2023-04-24T22:31:14.470Z,17.27
2023-04-24T22:34:00.808Z,14.75
2023-04-24T22:36:54.104Z,9.68
2023-04-24T22:39:47.014Z,11.43
2023-04-24T22:42:39.877Z,13.65
2023-04-24T22:45:32.797Z,15.63
2023-04-24T22:48:26.843Z,9.88
2023-04-24T22:51:19.755Z,16.57
2023-04-24T22:54:12.621Z,15.77
2023-04-24T22:57:05.022Z,14.85
2023-04-24T22:59:57.888Z,15.10
2023-04-24T23:06:05.303Z,10.55
2023-04-24T23:08:57.804Z,11.93
2023-04-24T23:11:51.077Z,17.08
2023-04-24T23:14:44.225Z,20.58
2023-04-24T23:17:36.954Z,18.83
2023-04-24T23:20:41.354Z,12.53
2023-04-24T23:23:35.087Z,20.80
2023-04-24T23:26:27.931Z,18.65
2023-04-24T23:32:31.932Z,10.43
2023-04-24T23:35:25.758Z,14.50
2023-04-24T23:38:30.130Z,18.00
2023-04-24T23:41:21.671Z,11.95
2023-04-24T23:47:33.187Z,21.98
2023-04-24T23:50:19.924Z,19.65
2023-04-24T23:53:06.060Z,11.95
2023-04-24T23:56:27.168Z,16.35
2023-04-24T23:59:14.683Z,14.27
